< < Back
Terminal Aerodrome Forecast


Current Version              Previous Versions:   1  2  3  4  5  6  7  8  9  

Terminal Aerodrome Forecast

062
FTUS44 KBMX 250520
TAFANB
TAF
KANB 250520Z 2506/2606 00000KT P6SM FEW250
     FM251700 22006KT P6SM SCT250=



Latest METAR

651
SAUS70 KWBC 251100 RRL
MTRANB
METAR KANB 251053Z AUTO 10003KT 10SM CLR 16/14 A3018 RMK AO2 SLP213
T01610139


USA.gov is the U.S. government's official web portal to all federal, state and local government web resources and services.